createdAt,value
2017-08-19T00:01:40.565Z,97.90
2017-08-19T00:04:06.646Z,97.80
2017-08-19T00:06:32.716Z,97.90
2017-08-19T00:08:58.773Z,97.90
2017-08-19T00:11:24.817Z,97.60
2017-08-19T00:13:50.869Z,97.60
2017-08-19T00:16:16.928Z,97.50
2017-08-19T00:18:43.748Z,97.20
2017-08-19T00:21:09.812Z,97.20
2017-08-19T00:23:35.897Z,97.30
2017-08-19T00:26:01.961Z,97.30
2017-08-19T00:28:27.997Z,97.10
2017-08-19T00:30:54.808Z,96.90
2017-08-19T00:33:21.605Z,96.80
2017-08-19T00:35:47.686Z,96.50
2017-08-19T00:38:13.728Z,96.80
2017-08-19T00:40:39.793Z,96.40
2017-08-19T00:43:05.860Z,96.40
2017-08-19T00:45:31.905Z,95.90
2017-08-19T00:47:58.026Z,96.20
2017-08-19T00:50:24.065Z,95.90
2017-08-19T00:52:50.146Z,95.80
2017-08-19T00:55:16.189Z,95.80
2017-08-19T00:57:42.265Z,95.60
2017-08-19T01:00:08.305Z,95.90
2017-08-19T01:02:34.382Z,95.60
2017-08-19T01:05:00.445Z,95.60
2017-08-19T01:07:26.509Z,95.50
2017-08-19T01:09:52.574Z,95.50
2017-08-19T01:12:18.640Z,95.30
2017-08-19T01:14:44.685Z,95.20
2017-08-19T01:17:10.746Z,94.80
2017-08-19T01:19:36.801Z,94.80
2017-08-19T01:22:02.853Z,95.00
2017-08-19T01:24:29.664Z,95.20
2017-08-19T01:26:56.731Z,95.20
2017-08-19T01:29:22.837Z,95.00
2017-08-19T01:31:48.896Z,94.70
2017-08-19T01:34:14.965Z,94.50
2017-08-19T01:36:41.025Z,94.40
2017-08-19T01:39:07.821Z,94.50
2017-08-19T01:41:33.877Z,94.50
2017-08-19T01:43:59.953Z,94.50
2017-08-19T01:46:26.004Z,94.40
2017-08-19T01:48:52.097Z,95.00
2017-08-19T01:51:18.899Z,94.60
2017-08-19T01:53:44.961Z,94.60
2017-08-19T01:56:11.027Z,94.80
2017-08-19T01:58:37.081Z,94.80
2017-08-19T02:01:03.137Z,95.00
2017-08-19T02:03:29.209Z,95.10
2017-08-19T02:05:55.284Z,95.20
2017-08-19T02:08:21.336Z,95.30
2017-08-19T02:10:47.398Z,95.20
2017-08-19T02:13:13.449Z,95.40
2017-08-19T02:15:39.504Z,95.50
2017-08-19T02:18:05.620Z,95.60
2017-08-19T02:20:31.713Z,95.50
2017-08-19T02:22:57.758Z,95.30
2017-08-19T02:25:23.829Z,95.20
2017-08-19T02:27:49.879Z,95.30
2017-08-19T02:30:15.901Z,95.40
2017-08-19T02:32:41.946Z,95.50
2017-08-19T02:35:07.981Z,95.20
2017-08-19T02:37:34.021Z,95.20
2017-08-19T02:40:00.080Z,95.10
2017-08-19T02:42:26.126Z,95.30
2017-08-19T02:44:52.909Z,95.10
2017-08-19T02:47:18.981Z,95.10
2017-08-19T02:49:45.037Z,95.00
2017-08-19T02:52:11.105Z,95.20
2017-08-19T02:54:37.172Z,95.20
2017-08-19T02:57:03.233Z,95.40
2017-08-19T02:59:29.267Z,95.30
2017-08-19T03:01:55.325Z,95.50
2017-08-19T03:04:21.385Z,95.50
2017-08-19T03:06:47.443Z,95.60
2017-08-19T03:09:13.506Z,95.60
2017-08-19T03:11:39.560Z,95.50
2017-08-19T03:14:05.613Z,95.40
2017-08-19T03:16:31.667Z,95.20
2017-08-19T03:18:58.465Z,95.40
2017-08-19T03:21:24.605Z,95.30
2017-08-19T03:23:50.672Z,95.30
2017-08-19T03:26:16.733Z,95.50
2017-08-19T03:28:42.813Z,95.70
2017-08-19T03:31:09.609Z,95.40
2017-08-19T03:33:35.680Z,95.40
2017-08-19T03:36:01.740Z,95.50
2017-08-19T03:38:27.821Z,95.70
2017-08-19T03:40:53.857Z,95.80
2017-08-19T03:43:19.925Z,95.50
2017-08-19T03:45:45.977Z,95.60
2017-08-19T03:48:12.002Z,95.50
2017-08-19T03:50:38.053Z,95.50
2017-08-19T03:53:04.122Z,95.50
2017-08-19T03:55:30.161Z,95.50
2017-08-19T03:57:56.229Z,95.50
2017-08-19T04:00:22.290Z,95.50
2017-08-19T04:02:48.346Z,95.50
2017-08-19T04:05:14.389Z,95.50
2017-08-19T04:07:40.429Z,95.30
2017-08-19T04:10:06.477Z,95.40
2017-08-19T04:12:33.312Z,95.30
2017-08-19T04:14:59.350Z,95.30
2017-08-19T04:17:25.405Z,95.30
2017-08-19T04:19:51.452Z,95.30
2017-08-19T04:22:18.249Z,95.20
2017-08-19T04:24:44.285Z,95.20
2017-08-19T04:27:11.090Z,95.10
2017-08-19T04:29:37.898Z,94.90
2017-08-19T04:32:03.982Z,94.90
2017-08-19T04:34:30.056Z,94.80
2017-08-19T04:36:56.146Z,94.80
2017-08-19T04:39:22.201Z,94.70
2017-08-19T04:41:48.277Z,94.70
2017-08-19T04:44:14.313Z,94.50
2017-08-19T04:46:40.381Z,94.40
2017-08-19T04:49:06.436Z,94.50
2017-08-19T04:51:32.477Z,94.60
2017-08-19T04:53:58.523Z,94.30
2017-08-19T04:56:24.580Z,94.30
2017-08-19T04:58:50.629Z,94.40
2017-08-19T05:01:16.682Z,94.40
2017-08-19T05:03:42.756Z,94.20
2017-08-19T05:06:08.829Z,94.20
2017-08-19T05:08:34.885Z,94.50
2017-08-19T05:11:00.949Z,94.50
2017-08-19T05:13:26.994Z,94.60
2017-08-19T05:15:53.045Z,94.50
2017-08-19T05:18:19.109Z,94.60
2017-08-19T05:20:45.133Z,94.80
2017-08-19T05:23:11.905Z,94.90
2017-08-19T05:25:37.971Z,94.80
2017-08-19T05:28:04.006Z,94.80
2017-08-19T05:30:30.061Z,94.80
2017-08-19T05:32:56.100Z,94.70
2017-08-19T05:35:22.897Z,94.70
2017-08-19T05:37:48.925Z,94.70
2017-08-19T05:40:14.972Z,94.70
2017-08-19T05:42:41.066Z,94.50
2017-08-19T05:45:07.105Z,94.50
2017-08-19T05:47:33.177Z,94.60
2017-08-19T05:49:59.395Z,94.10
2017-08-19T05:52:25.441Z,94.40
2017-08-19T05:54:51.497Z,94.50
2017-08-19T05:57:17.529Z,94.30
2017-08-19T05:59:43.581Z,94.10
2017-08-19T06:02:09.638Z,93.90
2017-08-19T06:04:35.698Z,94.00
2017-08-19T06:07:01.764Z,93.80
2017-08-19T06:09:27.833Z,93.90
2017-08-19T06:11:53.890Z,93.60
2017-08-19T06:14:19.913Z,93.60
2017-08-19T06:16:46.008Z,93.40
2017-08-19T06:19:12.054Z,93.50
2017-08-19T06:21:38.120Z,93.50
2017-08-19T06:24:04.196Z,93.40
2017-08-19T06:26:30.230Z,93.50
2017-08-19T06:28:56.301Z,93.20
2017-08-19T06:31:22.332Z,93.00
2017-08-19T06:33:48.377Z,92.80
2017-08-19T06:36:14.393Z,92.70
2017-08-19T06:38:40.460Z,92.70
2017-08-19T06:41:06.493Z,92.80
2017-08-19T06:43:32.617Z,92.40
2017-08-19T06:45:58.657Z,92.50
2017-08-19T06:48:24.712Z,92.40
2017-08-19T06:50:50.779Z,92.20
2017-08-19T06:53:16.838Z,91.90
2017-08-19T06:55:42.885Z,92.10
2017-08-19T06:58:08.933Z,91.60
2017-08-19T07:00:35.718Z,91.50
2017-08-19T07:03:01.786Z,91.50
2017-08-19T07:05:27.824Z,91.50
2017-08-19T07:07:53.878Z,91.50
2017-08-19T07:10:20.660Z,91.20
2017-08-19T07:12:46.717Z,91.20
2017-08-19T07:15:13.501Z,90.30
2017-08-19T07:17:39.641Z,90.30
2017-08-19T07:20:06.456Z,90.60
2017-08-19T07:22:32.540Z,90.60
2017-08-19T07:24:58.644Z,90.70
2017-08-19T07:27:24.705Z,90.10
2017-08-19T07:29:50.793Z,89.90
2017-08-19T07:32:16.865Z,89.50
2017-08-19T07:34:42.952Z,88.50
2017-08-19T07:37:09.045Z,88.70
2017-08-19T07:39:35.994Z,87.80
2017-08-19T07:42:02.176Z,87.70
2017-08-19T07:44:29.013Z,87.50
2017-08-19T07:46:55.909Z,86.10
2017-08-19T07:49:21.992Z,86.10
2017-08-19T07:51:48.061Z,85.90
2017-08-19T07:54:14.115Z,85.70
2017-08-19T07:56:40.237Z,86.20
2017-08-19T07:59:06.293Z,85.70
2017-08-19T08:01:33.119Z,84.20
2017-08-19T08:03:59.159Z,84.20
2017-08-19T08:06:25.197Z,85.00
2017-08-19T08:08:51.253Z,82.80
2017-08-19T08:11:17.341Z,82.80
2017-08-19T08:13:43.396Z,84.30
2017-08-19T08:16:09.466Z,83.30
2017-08-19T08:18:35.563Z,82.00
2017-08-19T08:21:01.660Z,82.60
2017-08-19T08:23:27.715Z,83.50
2017-08-19T08:25:54.493Z,80.50
2017-08-19T08:28:20.565Z,80.40
2017-08-19T08:30:46.608Z,80.50
2017-08-19T08:33:12.644Z,80.00
2017-08-19T08:35:38.693Z,79.70
2017-08-19T08:38:04.760Z,79.60
2017-08-19T08:40:30.837Z,80.30
2017-08-19T08:42:56.892Z,79.40
2017-08-19T08:45:22.934Z,79.20
2017-08-19T08:47:49.001Z,80.10
2017-08-19T08:50:15.051Z,80.20
2017-08-19T08:52:41.144Z,77.30
2017-08-19T08:55:07.201Z,77.00
2017-08-19T08:57:33.273Z,75.80
2017-08-19T08:59:59.349Z,76.50
2017-08-19T09:02:26.149Z,74.70
2017-08-19T09:04:52.185Z,74.60
2017-08-19T09:07:18.236Z,75.70
2017-08-19T09:09:44.305Z,74.70
2017-08-19T09:12:11.137Z,72.30
2017-08-19T09:14:37.992Z,72.90
2017-08-19T09:17:04.045Z,72.80
2017-08-19T09:19:30.097Z,72.70
2017-08-19T09:21:56.893Z,74.90
2017-08-19T09:24:22.985Z,75.00
2017-08-19T09:26:49.041Z,72.50
2017-08-19T09:29:15.849Z,72.80
2017-08-19T09:31:41.921Z,72.80
2017-08-19T09:34:07.981Z,73.80
2017-08-19T09:36:34.785Z,72.00
2017-08-19T09:39:00.845Z,72.00
2017-08-19T09:41:26.937Z,71.80
2017-08-19T09:43:52.993Z,69.50
2017-08-19T09:46:19.039Z,70.50
2017-08-19T09:48:45.089Z,67.50
2017-08-19T09:51:11.156Z,68.90
2017-08-19T09:53:37.216Z,69.80
2017-08-19T09:56:03.265Z,71.30
2017-08-19T09:58:29.294Z,72.70
2017-08-19T10:00:56.090Z,72.50
2017-08-19T10:03:22.153Z,72.40
2017-08-19T10:05:48.237Z,70.20
2017-08-19T10:08:21.224Z,67.90
2017-08-19T10:10:54.513Z,67.90
2017-08-19T10:13:20.609Z,66.70
2017-08-19T10:15:46.681Z,67.80
2017-08-19T10:18:12.759Z,68.90
2017-08-19T10:20:38.890Z,72.40
2017-08-19T10:23:07.236Z,85.40
2017-08-19T10:25:34.177Z,92.70
2017-08-19T10:28:00.241Z,92.80
2017-08-19T10:30:26.307Z,94.20
2017-08-19T10:32:52.412Z,95.90
2017-08-19T10:35:19.281Z,96.80
2017-08-19T10:37:46.214Z,96.50
2017-08-19T10:40:12.613Z,96.60
2017-08-19T10:42:38.698Z,94.50
2017-08-19T10:45:04.798Z,94.90
2017-08-19T10:47:31.445Z,95.50
2017-08-19T10:49:57.493Z,96.60
2017-08-19T10:52:23.540Z,92.00
2017-08-19T10:54:49.636Z,91.40
2017-08-19T10:57:15.719Z,92.10
2017-08-19T10:59:41.825Z,90.00
2017-08-19T11:02:08.613Z,89.80
2017-08-19T11:04:34.673Z,89.70
2017-08-19T11:07:00.729Z,90.50
2017-08-19T11:09:26.791Z,91.90
2017-08-19T11:11:52.849Z,92.20
2017-08-19T11:14:18.904Z,93.00
2017-08-19T11:16:45.021Z,94.00
2017-08-19T11:19:11.176Z,94.90
2017-08-19T11:21:37.333Z,95.90
2017-08-19T11:24:03.422Z,95.80
2017-08-19T11:26:30.205Z,96.10
2017-08-19T11:28:56.266Z,96.10
2017-08-19T11:31:23.033Z,96.40
2017-08-19T11:33:49.148Z,96.40
2017-08-19T11:36:15.192Z,97.10
2017-08-19T11:38:41.264Z,96.60
2017-08-19T11:41:07.306Z,90.70
2017-08-19T11:43:33.352Z,88.20
2017-08-19T11:45:59.397Z,90.60
2017-08-19T11:48:25.425Z,88.80
2017-08-19T11:50:51.570Z,89.00
2017-08-19T11:53:18.345Z,80.90
2017-08-19T11:55:44.433Z,80.80
2017-08-19T11:58:10.457Z,82.00
2017-08-19T12:00:36.515Z,85.70
2017-08-19T12:03:02.613Z,84.30
2017-08-19T12:05:28.725Z,85.80
2017-08-19T12:07:54.789Z,87.80
2017-08-19T12:10:20.860Z,87.70
2017-08-19T12:12:46.885Z,87.00
2017-08-19T12:15:12.949Z,89.70
2017-08-19T12:17:39.746Z,85.20
2017-08-19T12:20:05.785Z,85.20
2017-08-19T12:22:31.933Z,79.70
2017-08-19T12:24:58.004Z,74.30
2017-08-19T12:27:24.801Z,75.40
2017-08-19T12:29:50.887Z,75.30
2017-08-19T12:32:16.946Z,75.00
2017-08-19T12:34:42.985Z,77.10
2017-08-19T12:37:09.050Z,77.20
2017-08-19T12:39:35.110Z,78.60
2017-08-19T12:42:01.202Z,78.10
2017-08-19T12:44:27.280Z,79.10
2017-08-19T12:46:53.359Z,79.40
2017-08-19T12:49:19.397Z,78.70
2017-08-19T12:51:45.563Z,76.90
2017-08-19T12:54:11.657Z,73.80
2017-08-19T12:56:37.729Z,73.10
2017-08-19T12:59:04.521Z,68.10
2017-08-19T13:01:30.585Z,68.10
2017-08-19T13:03:56.689Z,66.10
2017-08-19T13:06:23.513Z,64.60
2017-08-19T13:08:50.293Z,65.20
2017-08-19T13:11:16.349Z,65.10
2017-08-19T13:13:43.142Z,64.70
2017-08-19T13:16:09.177Z,64.80
2017-08-19T13:18:35.253Z,66.00
2017-08-19T13:21:01.327Z,66.30
2017-08-19T13:23:27.472Z,64.20
2017-08-19T13:25:53.545Z,63.80
2017-08-19T13:28:19.601Z,63.90
2017-08-19T13:30:45.626Z,61.80
2017-08-19T13:33:11.716Z,63.10
2017-08-19T13:35:37.784Z,59.70
2017-08-19T13:38:03.826Z,64.60
2017-08-19T13:40:29.909Z,58.80
2017-08-19T13:42:55.964Z,58.80
2017-08-19T13:45:22.024Z,60.00
2017-08-19T13:47:48.077Z,60.10
2017-08-19T13:50:14.164Z,60.40
2017-08-19T13:52:40.246Z,59.80
2017-08-19T13:55:06.347Z,55.70
2017-08-19T13:57:32.444Z,56.50
2017-08-19T13:59:59.232Z,51.90
2017-08-19T14:02:25.277Z,51.80
2017-08-19T14:04:52.105Z,54.30
2017-08-19T14:07:18.887Z,52.50
2017-08-19T14:09:44.981Z,52.00
2017-08-19T14:12:11.018Z,52.30
2017-08-19T14:14:37.068Z,49.60
2017-08-19T14:17:03.133Z,48.20
2017-08-19T14:19:29.194Z,50.60
2017-08-19T14:21:55.961Z,53.80
2017-08-19T14:24:22.016Z,54.40
2017-08-19T14:26:48.099Z,54.80
2017-08-19T14:29:14.270Z,53.70
2017-08-19T14:31:40.365Z,53.80
2017-08-19T14:34:06.444Z,54.30
2017-08-19T14:36:33.272Z,54.70
2017-08-19T14:38:59.342Z,54.70
2017-08-19T14:41:25.394Z,56.50
2017-08-19T14:43:51.452Z,56.80
2017-08-19T14:46:17.517Z,54.70
2017-08-19T14:48:43.554Z,51.60
2017-08-19T14:51:09.626Z,50.90
2017-08-19T14:53:35.689Z,48.80
2017-08-19T14:56:01.746Z,45.50
2017-08-19T14:58:27.798Z,46.70
2017-08-19T15:00:53.897Z,47.90
2017-08-19T15:03:19.966Z,49.70
2017-08-19T15:05:46.026Z,51.60
2017-08-19T15:08:12.065Z,54.20
2017-08-19T15:10:38.126Z,54.70
2017-08-19T15:13:04.204Z,56.00
2017-08-19T15:15:30.277Z,57.10
2017-08-19T15:17:56.345Z,57.40
2017-08-19T15:20:22.373Z,56.60
2017-08-19T15:22:48.441Z,56.50
2017-08-19T15:25:14.485Z,56.30
2017-08-19T15:27:40.543Z,55.80
2017-08-19T15:30:06.625Z,56.90
2017-08-19T15:32:32.697Z,58.30
2017-08-19T15:34:58.768Z,59.60
2017-08-19T15:37:24.825Z,60.00
2017-08-19T15:39:51.634Z,63.60
2017-08-19T15:42:17.733Z,63.60
2017-08-19T15:44:43.768Z,64.00
2017-08-19T15:47:10.569Z,66.40
2017-08-19T15:49:36.637Z,65.70
2017-08-19T15:52:02.730Z,65.70
2017-08-19T15:54:28.825Z,65.20
2017-08-19T15:56:55.598Z,60.10
2017-08-19T15:59:21.666Z,60.00
2017-08-19T16:01:47.725Z,58.90
2017-08-19T16:04:13.770Z,55.70
2017-08-19T16:06:40.573Z,57.40
2017-08-19T16:09:06.601Z,57.40
2017-08-19T16:11:32.655Z,56.40
2017-08-19T16:13:58.781Z,56.70
2017-08-19T16:16:24.843Z,55.20
2017-08-19T16:18:50.885Z,54.90
2017-08-19T16:21:16.926Z,52.40
2017-08-19T16:23:42.975Z,49.40
2017-08-19T16:26:09.041Z,50.10
2017-08-19T16:28:35.080Z,51.80
2017-08-19T16:31:01.882Z,52.50
2017-08-19T16:33:28.697Z,53.00
2017-08-19T16:35:54.749Z,53.00
2017-08-19T16:38:23.052Z,57.70
2017-08-19T16:40:49.112Z,57.70
2017-08-19T16:43:15.177Z,58.60
2017-08-19T16:45:41.260Z,61.10
2017-08-19T16:48:07.336Z,62.90
2017-08-19T16:50:34.118Z,63.50
2017-08-19T16:53:00.169Z,63.30
2017-08-19T16:55:26.947Z,65.60
2017-08-19T16:57:52.977Z,65.60
2017-08-19T17:00:19.085Z,66.50
2017-08-19T17:02:45.147Z,68.20
2017-08-19T17:05:11.913Z,69.00
2017-08-19T17:07:37.988Z,69.00
2017-08-19T17:10:04.034Z,70.50
2017-08-19T17:12:30.074Z,71.40
2017-08-19T17:14:56.133Z,70.60
2017-08-19T17:17:22.200Z,71.30
2017-08-19T17:19:48.977Z,79.90
2017-08-19T17:22:15.028Z,80.00
2017-08-19T17:24:41.810Z,86.30
2017-08-19T17:27:07.866Z,86.30
2017-08-19T17:29:33.917Z,83.90
2017-08-19T17:32:00.008Z,83.00
2017-08-19T17:34:26.069Z,83.20
2017-08-19T17:36:52.109Z,83.50
2017-08-19T17:39:18.159Z,82.90
2017-08-19T17:41:44.243Z,81.70
2017-08-19T17:44:10.349Z,83.40
2017-08-19T17:46:37.148Z,82.80
2017-08-19T17:49:03.211Z,82.70
2017-08-19T17:51:29.277Z,82.90
2017-08-19T17:53:56.087Z,85.30
2017-08-19T17:56:22.118Z,85.30
2017-08-19T17:58:48.164Z,83.70
2017-08-19T18:01:14.189Z,84.60
2017-08-19T18:03:40.253Z,84.00
2017-08-19T18:06:06.285Z,84.90
2017-08-19T18:08:32.315Z,84.80
2017-08-19T18:10:58.351Z,85.70
2017-08-19T18:13:24.397Z,84.50
2017-08-19T18:15:50.461Z,84.70
2017-08-19T18:18:16.530Z,84.00
2017-08-19T18:20:42.582Z,84.20
2017-08-19T18:23:08.656Z,84.80
2017-08-19T18:25:34.708Z,85.40
2017-08-19T18:28:00.782Z,85.80
2017-08-19T18:30:26.837Z,85.30
2017-08-19T18:32:52.882Z,85.30
2017-08-19T18:35:18.952Z,86.00
2017-08-19T18:37:45.001Z,85.90
2017-08-19T18:40:11.181Z,85.70
2017-08-19T18:42:38.005Z,85.20
2017-08-19T18:45:04.053Z,85.20
2017-08-19T18:47:30.082Z,86.90
2017-08-19T18:49:56.112Z,85.10
2017-08-19T18:52:22.166Z,85.00
2017-08-19T18:54:48.231Z,85.10
2017-08-19T18:57:14.257Z,85.90
2017-08-19T18:59:40.298Z,85.30
2017-08-19T19:02:06.364Z,85.60
2017-08-19T19:04:32.416Z,86.60
2017-08-19T19:06:58.466Z,86.80
2017-08-19T19:09:24.525Z,88.00
2017-08-19T19:11:50.571Z,87.50
2017-08-19T19:14:16.600Z,88.00
2017-08-19T19:16:42.637Z,89.10
2017-08-19T19:19:09.492Z,90.10
2017-08-19T19:21:35.548Z,90.00
2017-08-19T19:24:01.604Z,90.00
2017-08-19T19:26:27.681Z,90.20
2017-08-19T19:28:54.469Z,90.30
2017-08-19T19:31:20.528Z,90.30
2017-08-19T19:33:46.585Z,90.40
2017-08-19T19:36:12.641Z,90.80
2017-08-19T19:38:39.420Z,91.10
2017-08-19T19:41:05.501Z,91.10
2017-08-19T19:43:31.572Z,91.00
2017-08-19T19:45:58.365Z,91.50
2017-08-19T19:48:24.420Z,91.40
2017-08-19T19:50:50.461Z,91.80
2017-08-19T19:53:16.539Z,91.70
2017-08-19T19:55:42.591Z,91.70
2017-08-19T19:58:08.633Z,91.70
2017-08-19T20:00:34.682Z,91.80
2017-08-19T20:03:00.745Z,92.00
2017-08-19T20:05:26.818Z,91.60
2017-08-19T20:07:52.893Z,91.60
2017-08-19T20:10:19.686Z,91.70
2017-08-19T20:12:45.740Z,91.60
2017-08-19T20:15:11.768Z,91.70
2017-08-19T20:17:37.821Z,91.60
2017-08-19T20:20:03.890Z,91.70
2017-08-19T20:22:29.949Z,91.70
2017-08-19T20:24:55.985Z,91.60
2017-08-19T20:27:22.762Z,91.80
2017-08-19T20:29:48.789Z,91.80
2017-08-19T20:32:14.832Z,91.90
2017-08-19T20:34:41.609Z,91.80
2017-08-19T20:37:07.630Z,91.80
2017-08-19T20:39:33.665Z,91.80
2017-08-19T20:41:59.681Z,91.70
2017-08-19T20:44:25.717Z,91.70
2017-08-19T20:46:51.737Z,91.70
2017-08-19T20:49:17.789Z,91.70
2017-08-19T20:51:43.835Z,91.60
2017-08-19T20:54:09.905Z,91.70
2017-08-19T20:56:35.972Z,91.60
2017-08-19T20:59:02.010Z,91.70
2017-08-19T21:01:28.037Z,91.70
2017-08-19T21:03:54.813Z,91.60
2017-08-19T21:06:20.862Z,91.60
2017-08-19T21:08:46.893Z,91.70
2017-08-19T21:11:13.733Z,92.10
2017-08-19T21:13:40.489Z,92.10
2017-08-19T21:16:06.526Z,92.00
2017-08-19T21:18:32.574Z,92.10
2017-08-19T21:20:58.617Z,92.30
2017-08-19T21:23:24.650Z,92.30
2017-08-19T21:25:50.686Z,92.20
2017-08-19T21:28:16.713Z,92.30
2017-08-19T21:30:43.493Z,92.60
2017-08-19T21:33:09.548Z,92.60
2017-08-19T21:35:35.593Z,92.60
2017-08-19T21:38:01.641Z,92.60
2017-08-19T21:40:27.684Z,92.80
2017-08-19T21:42:53.705Z,92.80
2017-08-19T21:45:19.741Z,92.90
2017-08-19T21:47:45.781Z,92.90
2017-08-19T21:50:12.569Z,93.30
2017-08-19T21:52:38.616Z,93.00
2017-08-19T21:55:04.650Z,93.20
2017-08-19T21:57:30.686Z,93.00
2017-08-19T21:59:56.708Z,93.10
2017-08-19T22:02:22.753Z,93.20
2017-08-19T22:04:49.517Z,93.10
2017-08-19T22:07:15.550Z,93.10
2017-08-19T22:09:41.577Z,93.10
2017-08-19T22:12:07.609Z,93.10
2017-08-19T22:14:34.373Z,93.10
2017-08-19T22:17:00.405Z,93.10
2017-08-19T22:19:26.441Z,93.00
2017-08-19T22:21:53.232Z,93.30
2017-08-19T22:24:19.269Z,93.20
2017-08-19T22:26:45.302Z,93.30
2017-08-19T22:29:11.341Z,93.40
2017-08-19T22:31:37.410Z,93.10
2017-08-19T22:34:04.186Z,93.30
2017-08-19T22:36:30.233Z,93.30
2017-08-19T22:38:56.284Z,93.20
2017-08-19T22:41:22.332Z,93.20
2017-08-19T22:43:48.368Z,93.40
2017-08-19T22:46:14.405Z,93.30
2017-08-19T22:48:40.449Z,93.30
2017-08-19T22:51:06.478Z,93.40
2017-08-19T22:53:32.541Z,93.40
2017-08-19T22:55:58.594Z,93.30
2017-08-19T22:58:24.656Z,93.20
2017-08-19T23:00:50.689Z,93.20
2017-08-19T23:03:16.732Z,93.10
2017-08-19T23:05:43.528Z,93.20
2017-08-19T23:08:09.587Z,92.90
2017-08-19T23:10:36.357Z,92.20
2017-08-19T23:13:02.401Z,92.20
2017-08-19T23:15:28.435Z,91.80
2017-08-19T23:17:55.198Z,91.10
2017-08-19T23:20:21.239Z,91.10
2017-08-19T23:22:47.285Z,91.00
2017-08-19T23:25:13.346Z,90.80
2017-08-19T23:27:39.372Z,90.70
2017-08-19T23:30:05.417Z,90.60
2017-08-19T23:32:31.444Z,90.60
2017-08-19T23:34:57.493Z,90.70
2017-08-19T23:37:23.537Z,90.60
2017-08-19T23:39:49.602Z,90.50
2017-08-19T23:42:15.638Z,90.70
2017-08-19T23:44:42.442Z,90.60
2017-08-19T23:47:08.503Z,90.60
2017-08-19T23:49:34.532Z,90.80
2017-08-19T23:52:01.369Z,91.00
2017-08-19T23:54:27.392Z,91.10
2017-08-19T23:56:53.434Z,91.20
2017-08-19T23:59:19.497Z,91.30
